aviador You're here:

ZYTL Decoded Metar

DALIAN in CHINA
Report Time2018-01-18 21:00:00
UTC Time2018-01-18 21:36:19
Flight Rules vfr VFR
Wind280° at 4 kt
W.Decomp.*RWY 28: 4.0 kt HW 0.6 kt RCW
W.Rank280° ranks 5
Current wind is below 280° avg. (6.5)
Visibility9999 m
Phenomena:N/A
Clouds:N/A
Expected CloudBase > 3,200 ft AGL from Temp-Dew spread
CeilingNone
Temp01°C (ISA -13)
Dew Point-7°C (56% RH)
AAT-3.2°C
QNH1023 hPa
Density Alt-1,598 ft
Elevation318 ft
Report Wrong Elevation
Raw Report
METAR ZYTL 182100Z 28002MPS 240V310 CAVOK 01/M07 Q1023 NOSIG=

Extra information for ZYTL:More info

Metar Taf Metar & Taf Last 4 Metars F.Rules Stats Wind Profile Meteogram Temp Stats Airport Information Weather charts Add Link Nearby VenuesMetar ALERT Operation Metar Decoded Social comments